sensor_id;sensor_type;location;lat;lon;timestamp;P1;durP1;ratioP1;P2;durP2;ratioP2
4182;SDS011;2105;52.300;9.182;2023-01-15T00:02:04;6.77;;;3.63;;
4182;SDS011;2105;52.300;9.182;2023-01-15T00:04:31;6.67;;;3.90;;
4182;SDS011;2105;52.300;9.182;2023-01-15T00:06:58;4.17;;;3.87;;
4182;SDS011;2105;52.300;9.182;2023-01-15T00:09:25;4.00;;;3.70;;
4182;SDS011;2105;52.300;9.182;2023-01-15T00:11:51;6.03;;;4.03;;
4182;SDS011;2105;52.300;9.182;2023-01-15T00:14:19;4.33;;;3.90;;
4182;SDS011;2105;52.300;9.182;2023-01-15T00:16:45;6.10;;;3.77;;
4182;SDS011;2105;52.300;9.182;2023-01-15T00:19:17;5.70;;;3.90;;
4182;SDS011;2105;52.300;9.182;2023-01-15T00:21:44;8.87;;;4.30;;
4182;SDS011;2105;52.300;9.182;2023-01-15T00:24:10;4.60;;;4.10;;
4182;SDS011;2105;52.300;9.182;2023-01-15T00:26:55;4.60;;;4.20;;
4182;SDS011;2105;52.300;9.182;2023-01-15T00:29:39;9.43;;;4.03;;
4182;SDS011;2105;52.300;9.182;2023-01-15T00:32:06;7.57;;;4.40;;
4182;SDS011;2105;52.300;9.182;2023-01-15T00:34:35;5.73;;;4.60;;
4182;SDS011;2105;52.300;9.182;2023-01-15T00:37:02;5.03;;;4.53;;
4182;SDS011;2105;52.300;9.182;2023-01-15T00:39:28;5.93;;;4.47;;
4182;SDS011;2105;52.300;9.182;2023-01-15T00:41:55;5.10;;;4.70;;
4182;SDS011;2105;52.300;9.182;2023-01-15T00:44:22;11.30;;;4.90;;
4182;SDS011;2105;52.300;9.182;2023-01-15T00:46:48;5.17;;;4.80;;
4182;SDS011;2105;52.300;9.182;2023-01-15T00:49:15;5.10;;;4.70;;
4182;SDS011;2105;52.300;9.182;2023-01-15T00:51:43;5.70;;;5.20;;
4182;SDS011;2105;52.300;9.182;2023-01-15T00:54:11;5.40;;;5.00;;
4182;SDS011;2105;52.300;9.182;2023-01-15T00:56:38;5.67;;;5.27;;
4182;SDS011;2105;52.300;9.182;2023-01-15T00:59:04;7.67;;;5.00;;
4182;SDS011;2105;52.300;9.182;2023-01-15T01:01:31;5.43;;;4.97;;
4182;SDS011;2105;52.300;9.182;2023-01-15T01:03:58;11.00;;;5.20;;
4182;SDS011;2105;52.300;9.182;2023-01-15T01:06:25;5.70;;;4.77;;
4182;SDS011;2105;52.300;9.182;2023-01-15T01:08:53;4.67;;;4.20;;
4182;SDS011;2105;52.300;9.182;2023-01-15T01:11:21;5.30;;;4.80;;
4182;SDS011;2105;52.300;9.182;2023-01-15T01:13:50;5.73;;;4.93;;
4182;SDS011;2105;52.300;9.182;2023-01-15T01:16:22;6.03;;;4.97;;
4182;SDS011;2105;52.300;9.182;2023-01-15T01:18:50;5.57;;;5.17;;
4182;SDS011;2105;52.300;9.182;2023-01-15T01:21:17;5.60;;;5.10;;
4182;SDS011;2105;52.300;9.182;2023-01-15T01:23:44;5.30;;;4.80;;
4182;SDS011;2105;52.300;9.182;2023-01-15T01:26:12;7.50;;;5.37;;
4182;SDS011;2105;52.300;9.182;2023-01-15T01:28:38;5.40;;;5.10;;
4182;SDS011;2105;52.300;9.182;2023-01-15T01:31:05;5.73;;;5.23;;
4182;SDS011;2105;52.300;9.182;2023-01-15T01:33:33;5.30;;;4.90;;
4182;SDS011;2105;52.300;9.182;2023-01-15T01:36:00;5.20;;;4.90;;
4182;SDS011;2105;52.300;9.182;2023-01-15T01:38:27;5.53;;;5.10;;
4182;SDS011;2105;52.300;9.182;2023-01-15T01:40:54;5.20;;;4.80;;
4182;SDS011;2105;52.300;9.182;2023-01-15T01:43:23;5.30;;;4.90;;
4182;SDS011;2105;52.300;9.182;2023-01-15T01:45:51;5.37;;;4.97;;
4182;SDS011;2105;52.300;9.182;2023-01-15T01:48:19;5.47;;;5.07;;
4182;SDS011;2105;52.300;9.182;2023-01-15T01:50:50;5.40;;;4.90;;
4182;SDS011;2105;52.300;9.182;2023-01-15T01:53:20;5.87;;;5.37;;
4182;SDS011;2105;52.300;9.182;2023-01-15T01:55:48;5.80;;;5.50;;
4182;SDS011;2105;52.300;9.182;2023-01-15T01:58:16;5.63;;;5.20;;
4182;SDS011;2105;52.300;9.182;2023-01-15T02:00:47;5.50;;;5.10;;
4182;SDS011;2105;52.300;9.182;2023-01-15T02:03:14;5.80;;;5.40;;
4182;SDS011;2105;52.300;9.182;2023-01-15T02:05:45;5.40;;;5.00;;
4182;SDS011;2105;52.300;9.182;2023-01-15T02:08:15;5.93;;;5.40;;
4182;SDS011;2105;52.300;9.182;2023-01-15T02:10:41;6.00;;;5.60;;
4182;SDS011;2105;52.300;9.182;2023-01-15T02:13:10;7.40;;;6.20;;
4182;SDS011;2105;52.300;9.182;2023-01-15T02:15:42;6.90;;;6.20;;
4182;SDS011;2105;52.300;9.182;2023-01-15T02:18:15;6.63;;;6.10;;
4182;SDS011;2105;52.300;9.182;2023-01-15T02:20:47;7.50;;;6.90;;
4182;SDS011;2105;52.300;9.182;2023-01-15T02:29:17;8.60;;;8.00;;
4182;SDS011;2105;52.300;9.182;2023-01-15T02:31:49;9.40;;;8.10;;
4182;SDS011;2105;52.300;9.182;2023-01-15T02:34:19;9.00;;;8.30;;
4182;SDS011;2105;52.300;9.182;2023-01-15T02:36:49;9.10;;;8.50;;
4182;SDS011;2105;52.300;9.182;2023-01-15T02:39:21;9.20;;;8.60;;
4182;SDS011;2105;52.300;9.182;2023-01-15T02:41:51;9.07;;;8.57;;
4182;SDS011;2105;52.300;9.182;2023-01-15T02:44:21;8.60;;;8.10;;
4182;SDS011;2105;52.300;9.182;2023-01-15T02:46:49;8.80;;;8.30;;
4182;SDS011;2105;52.300;9.182;2023-01-15T02:49:18;8.43;;;7.93;;
4182;SDS011;2105;52.300;9.182;2023-01-15T02:51:48;8.87;;;8.03;;
4182;SDS011;2105;52.300;9.182;2023-01-15T02:54:19;8.90;;;8.10;;
4182;SDS011;2105;52.300;9.182;2023-01-15T02:56:49;8.53;;;7.83;;
4182;SDS011;2105;52.300;9.182;2023-01-15T02:59:19;8.00;;;7.50;;
4182;SDS011;2105;52.300;9.182;2023-01-15T03:01:49;8.80;;;7.57;;
4182;SDS011;2105;52.300;9.182;2023-01-15T03:04:21;8.43;;;7.73;;
4182;SDS011;2105;52.300;9.182;2023-01-15T03:06:55;8.00;;;7.40;;
4182;SDS011;2105;52.300;9.182;2023-01-15T03:09:26;8.20;;;7.50;;
4182;SDS011;2105;52.300;9.182;2023-01-15T03:11:58;10.37;;;7.30;;
4182;SDS011;2105;52.300;9.182;2023-01-15T03:14:30;8.20;;;7.60;;
4182;SDS011;2105;52.300;9.182;2023-01-15T03:17:03;8.40;;;7.70;;
4182;SDS011;2105;52.300;9.182;2023-01-15T03:19:36;8.23;;;7.73;;
4182;SDS011;2105;52.300;9.182;2023-01-15T03:22:10;8.70;;;7.90;;
4182;SDS011;2105;52.300;9.182;2023-01-15T03:24:43;8.00;;;7.50;;
4182;SDS011;2105;52.300;9.182;2023-01-15T03:27:16;8.80;;;7.80;;
4182;SDS011;2105;52.300;9.182;2023-01-15T03:29:44;8.30;;;7.70;;
4182;SDS011;2105;52.300;9.182;2023-01-15T03:32:15;9.90;;;7.80;;
4182;SDS011;2105;52.300;9.182;2023-01-15T03:34:44;9.63;;;8.00;;
4182;SDS011;2105;52.300;9.182;2023-01-15T03:37:16;8.70;;;7.90;;
4182;SDS011;2105;52.300;9.182;2023-01-15T03:39:44;8.50;;;7.80;;
4182;SDS011;2105;52.300;9.182;2023-01-15T03:42:14;9.07;;;8.23;;
4182;SDS011;2105;52.300;9.182;2023-01-15T03:44:49;9.87;;;8.67;;
4182;SDS011;2105;52.300;9.182;2023-01-15T03:47:28;10.53;;;8.30;;
4182;SDS011;2105;52.300;9.182;2023-01-15T03:50:04;13.30;;;8.97;;
4182;SDS011;2105;52.300;9.182;2023-01-15T03:52:42;9.70;;;9.00;;
4182;SDS011;2105;52.300;9.182;2023-01-15T03:55:12;9.07;;;8.47;;
4182;SDS011;2105;52.300;9.182;2023-01-15T03:57:45;10.00;;;9.07;;
4182;SDS011;2105;52.300;9.182;2023-01-15T04:00:18;9.60;;;8.83;;
4182;SDS011;2105;52.300;9.182;2023-01-15T04:02:47;9.90;;;9.20;;
4182;SDS011;2105;52.300;9.182;2023-01-15T04:05:16;11.60;;;8.87;;
4182;SDS011;2105;52.300;9.182;2023-01-15T04:07:43;9.97;;;9.13;;
4182;SDS011;2105;52.300;9.182;2023-01-15T04:10:12;9.70;;;8.80;;
4182;SDS011;2105;52.300;9.182;2023-01-15T04:12:40;9.23;;;8.53;;
4182;SDS011;2105;52.300;9.182;2023-01-15T04:15:09;11.00;;;8.67;;
4182;SDS011;2105;52.300;9.182;2023-01-15T04:17:36;9.00;;;8.40;;
4182;SDS011;2105;52.300;9.182;2023-01-15T04:20:03;10.03;;;8.60;;
4182;SDS011;2105;52.300;9.182;2023-01-15T04:22:31;10.63;;;9.50;;
4182;SDS011;2105;52.300;9.182;2023-01-15T04:25:00;9.43;;;8.73;;
4182;SDS011;2105;52.300;9.182;2023-01-15T04:27:26;9.50;;;8.60;;
4182;SDS011;2105;52.300;9.182;2023-01-15T04:29:53;9.80;;;9.00;;
4182;SDS011;2105;52.300;9.182;2023-01-15T04:32:21;10.50;;;8.87;;
4182;SDS011;2105;52.300;9.182;2023-01-15T04:34:48;9.67;;;8.93;;
4182;SDS011;2105;52.300;9.182;2023-01-15T04:37:15;9.63;;;8.70;;
4182;SDS011;2105;52.300;9.182;2023-01-15T04:39:42;9.30;;;8.50;;
4182;SDS011;2105;52.300;9.182;2023-01-15T04:42:10;10.40;;;8.67;;
4182;SDS011;2105;52.300;9.182;2023-01-15T04:44:55;9.20;;;8.50;;
4182;SDS011;2105;52.300;9.182;2023-01-15T04:47:23;10.70;;;8.93;;
4182;SDS011;2105;52.300;9.182;2023-01-15T04:49:50;10.20;;;9.10;;
4182;SDS011;2105;52.300;9.182;2023-01-15T04:52:17;10.30;;;9.40;;
4182;SDS011;2105;52.300;9.182;2023-01-15T04:54:44;10.37;;;9.47;;
4182;SDS011;2105;52.300;9.182;2023-01-15T04:57:10;10.63;;;9.63;;
4182;SDS011;2105;52.300;9.182;2023-01-15T04:59:37;11.67;;;10.00;;
4182;SDS011;2105;52.300;9.182;2023-01-15T05:02:04;10.53;;;9.23;;
4182;SDS011;2105;52.300;9.182;2023-01-15T05:04:32;10.20;;;9.10;;
4182;SDS011;2105;52.300;9.182;2023-01-15T05:06:59;10.10;;;9.30;;
4182;SDS011;2105;52.300;9.182;2023-01-15T05:09:26;9.07;;;8.57;;
4182;SDS011;2105;52.300;9.182;2023-01-15T05:11:53;9.03;;;8.43;;
4182;SDS011;2105;52.300;9.182;2023-01-15T05:14:20;13.03;;;9.07;;
4182;SDS011;2105;52.300;9.182;2023-01-15T05:16:46;10.27;;;9.27;;
4182;SDS011;2105;52.300;9.182;2023-01-15T05:19:13;11.70;;;9.00;;
4182;SDS011;2105;52.300;9.182;2023-01-15T05:21:42;9.67;;;8.73;;
4182;SDS011;2105;52.300;9.182;2023-01-15T05:24:10;12.60;;;9.10;;
4182;SDS011;2105;52.300;9.182;2023-01-15T05:26:39;13.03;;;9.87;;
4182;SDS011;2105;52.300;9.182;2023-01-15T05:29:06;12.37;;;9.53;;
4182;SDS011;2105;52.300;9.182;2023-01-15T05:31:33;10.60;;;9.07;;
4182;SDS011;2105;52.300;9.182;2023-01-15T05:34:00;12.50;;;9.13;;
4182;SDS011;2105;52.300;9.182;2023-01-15T05:36:27;14.00;;;9.93;;
4182;SDS011;2105;52.300;9.182;2023-01-15T05:38:57;10.03;;;8.53;;
4182;SDS011;2105;52.300;9.182;2023-01-15T05:41:25;10.00;;;9.10;;
4182;SDS011;2105;52.300;9.182;2023-01-15T05:44:10;9.57;;;8.80;;
4182;SDS011;2105;52.300;9.182;2023-01-15T05:46:39;9.80;;;8.80;;
4182;SDS011;2105;52.300;9.182;2023-01-15T05:49:10;13.23;;;8.87;;
4182;SDS011;2105;52.300;9.182;2023-01-15T05:51:38;10.90;;;8.90;;
4182;SDS011;2105;52.300;9.182;2023-01-15T05:54:09;8.93;;;8.30;;
4182;SDS011;2105;52.300;9.182;2023-01-15T05:56:38;9.90;;;8.90;;
4182;SDS011;2105;52.300;9.182;2023-01-15T05:59:06;19.93;;;9.40;;
4182;SDS011;2105;52.300;9.182;2023-01-15T06:01:34;13.60;;;8.90;;
4182;SDS011;2105;52.300;9.182;2023-01-15T06:04:02;10.10;;;9.20;;
4182;SDS011;2105;52.300;9.182;2023-01-15T06:06:30;10.00;;;9.20;;
4182;SDS011;2105;52.300;9.182;2023-01-15T06:08:58;10.70;;;9.63;;
4182;SDS011;2105;52.300;9.182;2023-01-15T06:11:26;12.33;;;9.67;;
4182;SDS011;2105;52.300;9.182;2023-01-15T06:13:53;14.57;;;9.87;;
4182;SDS011;2105;52.300;9.182;2023-01-15T06:16:20;12.67;;;10.20;;
4182;SDS011;2105;52.300;9.182;2023-01-15T06:18:47;11.67;;;10.30;;
4182;SDS011;2105;52.300;9.182;2023-01-15T06:21:14;14.83;;;9.80;;
4182;SDS011;2105;52.300;9.182;2023-01-15T06:23:41;12.87;;;10.00;;
4182;SDS011;2105;52.300;9.182;2023-01-15T06:26:10;11.80;;;10.10;;
4182;SDS011;2105;52.300;9.182;2023-01-15T06:28:39;11.50;;;10.43;;
4182;SDS011;2105;52.300;9.182;2023-01-15T06:31:07;10.73;;;9.93;;
4182;SDS011;2105;52.300;9.182;2023-01-15T06:33:35;13.00;;;10.30;;
4182;SDS011;2105;52.300;9.182;2023-01-15T06:36:03;13.80;;;9.37;;
4182;SDS011;2105;52.300;9.182;2023-01-15T06:38:32;14.97;;;10.30;;
4182;SDS011;2105;52.300;9.182;2023-01-15T06:40:58;15.73;;;10.43;;
4182;SDS011;2105;52.300;9.182;2023-01-15T06:43:26;16.50;;;10.43;;
4182;SDS011;2105;52.300;9.182;2023-01-15T06:46:11;12.37;;;10.83;;
4182;SDS011;2105;52.300;9.182;2023-01-15T06:48:57;16.17;;;10.97;;
4182;SDS011;2105;52.300;9.182;2023-01-15T06:51:23;12.83;;;10.60;;
4182;SDS011;2105;52.300;9.182;2023-01-15T06:53:50;10.87;;;9.87;;
4182;SDS011;2105;52.300;9.182;2023-01-15T06:56:17;12.67;;;9.93;;
4182;SDS011;2105;52.300;9.182;2023-01-15T06:58:44;12.90;;;10.27;;
4182;SDS011;2105;52.300;9.182;2023-01-15T07:01:12;14.00;;;10.47;;
4182;SDS011;2105;52.300;9.182;2023-01-15T07:03:40;16.83;;;10.30;;
4182;SDS011;2105;52.300;9.182;2023-01-15T07:06:08;12.43;;;10.40;;
4182;SDS011;2105;52.300;9.182;2023-01-15T07:08:36;21.47;;;10.80;;
4182;SDS011;2105;52.300;9.182;2023-01-15T07:11:04;13.70;;;10.30;;
4182;SDS011;2105;52.300;9.182;2023-01-15T07:13:41;12.23;;;10.60;;
4182;SDS011;2105;52.300;9.182;2023-01-15T07:16:11;13.10;;;10.30;;
4182;SDS011;2105;52.300;9.182;2023-01-15T07:18:51;11.47;;;10.40;;
4182;SDS011;2105;52.300;9.182;2023-01-15T07:21:20;11.03;;;10.07;;
4182;SDS011;2105;52.300;9.182;2023-01-15T07:23:47;10.90;;;9.40;;
4182;SDS011;2105;52.300;9.182;2023-01-15T07:26:14;14.63;;;10.23;;
4182;SDS011;2105;52.300;9.182;2023-01-15T07:28:41;18.17;;;10.30;;
4182;SDS011;2105;52.300;9.182;2023-01-15T07:31:07;12.30;;;10.00;;
4182;SDS011;2105;52.300;9.182;2023-01-15T07:33:36;15.90;;;10.63;;
4182;SDS011;2105;52.300;9.182;2023-01-15T07:36:03;15.80;;;9.90;;
4182;SDS011;2105;52.300;9.182;2023-01-15T07:38:30;10.70;;;9.47;;
4182;SDS011;2105;52.300;9.182;2023-01-15T07:40:57;11.40;;;9.33;;
4182;SDS011;2105;52.300;9.182;2023-01-15T07:43:42;11.50;;;9.70;;
4182;SDS011;2105;52.300;9.182;2023-01-15T07:46:27;10.10;;;8.93;;
4182;SDS011;2105;52.300;9.182;2023-01-15T07:49:12;9.93;;;8.90;;
4182;SDS011;2105;52.300;9.182;2023-01-15T07:51:57;11.93;;;9.57;;
4182;SDS011;2105;52.300;9.182;2023-01-15T07:54:23;10.67;;;9.67;;
4182;SDS011;2105;52.300;9.182;2023-01-15T07:56:51;11.80;;;9.80;;
4182;SDS011;2105;52.300;9.182;2023-01-15T07:59:19;13.33;;;9.77;;
4182;SDS011;2105;52.300;9.182;2023-01-15T08:01:45;11.90;;;10.03;;
4182;SDS011;2105;52.300;9.182;2023-01-15T08:04:14;10.57;;;9.53;;
4182;SDS011;2105;52.300;9.182;2023-01-15T08:06:40;15.93;;;10.10;;
4182;SDS011;2105;52.300;9.182;2023-01-15T08:09:07;11.47;;;10.33;;
4182;SDS011;2105;52.300;9.182;2023-01-15T08:11:34;22.20;;;10.57;;
4182;SDS011;2105;52.300;9.182;2023-01-15T08:14:18;12.10;;;10.10;;
4182;SDS011;2105;52.300;9.182;2023-01-15T08:17:03;10.40;;;9.60;;
4182;SDS011;2105;52.300;9.182;2023-01-15T08:19:31;11.73;;;10.37;;
4182;SDS011;2105;52.300;9.182;2023-01-15T08:21:58;12.50;;;11.20;;
4182;SDS011;2105;52.300;9.182;2023-01-15T08:24:25;11.90;;;10.80;;
4182;SDS011;2105;52.300;9.182;2023-01-15T08:26:52;12.17;;;11.07;;
4182;SDS011;2105;52.300;9.182;2023-01-15T08:29:19;13.30;;;10.77;;
4182;SDS011;2105;52.300;9.182;2023-01-15T08:31:47;21.40;;;11.40;;
4182;SDS011;2105;52.300;9.182;2023-01-15T08:34:14;12.43;;;10.83;;
4182;SDS011;2105;52.300;9.182;2023-01-15T08:36:42;19.30;;;10.80;;
4182;SDS011;2105;52.300;9.182;2023-01-15T08:39:09;17.77;;;11.00;;
4182;SDS011;2105;52.300;9.182;2023-01-15T08:41:36;12.23;;;10.80;;
4182;SDS011;2105;52.300;9.182;2023-01-15T08:44:03;15.27;;;10.77;;
4182;SDS011;2105;52.300;9.182;2023-01-15T08:46:30;11.50;;;10.43;;
4182;SDS011;2105;52.300;9.182;2023-01-15T08:48:56;12.97;;;11.10;;
4182;SDS011;2105;52.300;9.182;2023-01-15T08:51:23;13.27;;;11.53;;
4182;SDS011;2105;52.300;9.182;2023-01-15T08:53:52;22.10;;;11.37;;
4182;SDS011;2105;52.300;9.182;2023-01-15T08:56:19;12.20;;;11.20;;
4182;SDS011;2105;52.300;9.182;2023-01-15T08:58:47;20.30;;;12.07;;
4182;SDS011;2105;52.300;9.182;2023-01-15T09:01:14;15.30;;;11.60;;
4182;SDS011;2105;52.300;9.182;2023-01-15T09:03:41;12.47;;;11.13;;
4182;SDS011;2105;52.300;9.182;2023-01-15T09:06:08;15.97;;;11.43;;
4182;SDS011;2105;52.300;9.182;2023-01-15T09:08:37;12.50;;;10.23;;
4182;SDS011;2105;52.300;9.182;2023-01-15T09:13:39;17.23;;;12.07;;
4182;SDS011;2105;52.300;9.182;2023-01-15T09:16:06;17.00;;;11.90;;
4182;SDS011;2105;52.300;9.182;2023-01-15T09:18:35;14.27;;;11.40;;
4182;SDS011;2105;52.300;9.182;2023-01-15T09:21:03;13.40;;;11.53;;
4182;SDS011;2105;52.300;9.182;2023-01-15T09:23:30;12.13;;;10.97;;
4182;SDS011;2105;52.300;9.182;2023-01-15T09:25:57;15.50;;;11.83;;
4182;SDS011;2105;52.300;9.182;2023-01-15T09:28:26;12.97;;;11.40;;
4182;SDS011;2105;52.300;9.182;2023-01-15T09:30:54;12.90;;;11.17;;
4182;SDS011;2105;52.300;9.182;2023-01-15T09:33:21;15.70;;;12.60;;
4182;SDS011;2105;52.300;9.182;2023-01-15T09:35:48;14.07;;;11.57;;
4182;SDS011;2105;52.300;9.182;2023-01-15T09:38:16;15.07;;;12.20;;
4182;SDS011;2105;52.300;9.182;2023-01-15T09:40:45;18.03;;;12.93;;
4182;SDS011;2105;52.300;9.182;2023-01-15T09:43:18;14.40;;;13.20;;
4182;SDS011;2105;52.300;9.182;2023-01-15T09:45:53;17.00;;;12.37;;
4182;SDS011;2105;52.300;9.182;2023-01-15T09:48:28;13.70;;;12.37;;
4182;SDS011;2105;52.300;9.182;2023-01-15T09:51:11;15.43;;;12.87;;
4182;SDS011;2105;52.300;9.182;2023-01-15T09:53:49;18.27;;;13.63;;
4182;SDS011;2105;52.300;9.182;2023-01-15T09:56:29;14.13;;;12.63;;
4182;SDS011;2105;52.300;9.182;2023-01-15T09:58:57;14.37;;;12.87;;
4182;SDS011;2105;52.300;9.182;2023-01-15T10:01:30;13.63;;;12.33;;
4182;SDS011;2105;52.300;9.182;2023-01-15T10:04:00;13.93;;;12.90;;
4182;SDS011;2105;52.300;9.182;2023-01-15T10:06:32;16.47;;;12.87;;
4182;SDS011;2105;52.300;9.182;2023-01-15T10:09:05;13.40;;;12.30;;
4182;SDS011;2105;52.300;9.182;2023-01-15T10:11:39;16.50;;;12.70;;
4182;SDS011;2105;52.300;9.182;2023-01-15T10:14:31;16.60;;;13.10;;
4182;SDS011;2105;52.300;9.182;2023-01-15T10:17:06;14.97;;;13.40;;
4182;SDS011;2105;52.300;9.182;2023-01-15T10:19:45;14.07;;;12.30;;
4182;SDS011;2105;52.300;9.182;2023-01-15T10:22:14;13.30;;;12.10;;
4182;SDS011;2105;52.300;9.182;2023-01-15T10:24:58;14.03;;;12.60;;
4182;SDS011;2105;52.300;9.182;2023-01-15T10:27:29;13.90;;;12.20;;
4182;SDS011;2105;52.300;9.182;2023-01-15T10:29:59;14.60;;;13.20;;
4182;SDS011;2105;52.300;9.182;2023-01-15T10:32:33;16.53;;;12.73;;
4182;SDS011;2105;52.300;9.182;2023-01-15T10:35:21;16.33;;;12.23;;
4182;SDS011;2105;52.300;9.182;2023-01-15T10:37:53;14.50;;;13.00;;
4182;SDS011;2105;52.300;9.182;2023-01-15T10:40:28;13.23;;;12.10;;
4182;SDS011;2105;52.300;9.182;2023-01-15T10:43:01;15.70;;;12.63;;
4182;SDS011;2105;52.300;9.182;2023-01-15T10:45:37;13.50;;;12.30;;
4182;SDS011;2105;52.300;9.182;2023-01-15T10:48:11;13.27;;;11.90;;
4182;SDS011;2105;52.300;9.182;2023-01-15T10:50:44;14.67;;;12.30;;
4182;SDS011;2105;52.300;9.182;2023-01-15T10:53:13;14.13;;;12.70;;
4182;SDS011;2105;52.300;9.182;2023-01-15T10:55:49;23.60;;;13.83;;
4182;SDS011;2105;52.300;9.182;2023-01-15T10:58:22;16.77;;;13.63;;
4182;SDS011;2105;52.300;9.182;2023-01-15T11:00:55;15.03;;;13.60;;
4182;SDS011;2105;52.300;9.182;2023-01-15T11:03:31;16.90;;;13.87;;
4182;SDS011;2105;52.300;9.182;2023-01-15T11:06:01;16.33;;;14.73;;
4182;SDS011;2105;52.300;9.182;2023-01-15T11:08:29;15.63;;;14.10;;
4182;SDS011;2105;52.300;9.182;2023-01-15T11:10:58;16.00;;;14.40;;
4182;SDS011;2105;52.300;9.182;2023-01-15T11:13:37;15.83;;;14.50;;
4182;SDS011;2105;52.300;9.182;2023-01-15T11:16:23;17.10;;;15.40;;
4182;SDS011;2105;52.300;9.182;2023-01-15T11:19:15;18.50;;;15.50;;
4182;SDS011;2105;52.300;9.182;2023-01-15T11:22:04;17.43;;;16.00;;
4182;SDS011;2105;52.300;9.182;2023-01-15T11:24:34;17.00;;;15.50;;
4182;SDS011;2105;52.300;9.182;2023-01-15T11:27:03;17.83;;;15.93;;
4182;SDS011;2105;52.300;9.182;2023-01-15T11:29:32;18.17;;;16.47;;
4182;SDS011;2105;52.300;9.182;2023-01-15T11:32:01;17.80;;;16.10;;
4182;SDS011;2105;52.300;9.182;2023-01-15T11:34:30;18.23;;;16.60;;
4182;SDS011;2105;52.300;9.182;2023-01-15T11:37:00;20.20;;;16.37;;
4182;SDS011;2105;52.300;9.182;2023-01-15T11:39:28;17.40;;;16.10;;
4182;SDS011;2105;52.300;9.182;2023-01-15T11:41:58;18.07;;;16.23;;
4182;SDS011;2105;52.300;9.182;2023-01-15T11:44:50;18.80;;;15.80;;
4182;SDS011;2105;52.300;9.182;2023-01-15T11:47:35;18.00;;;16.50;;
4182;SDS011;2105;52.300;9.182;2023-01-15T11:50:21;17.00;;;15.50;;
4182;SDS011;2105;52.300;9.182;2023-01-15T11:53:06;17.43;;;15.93;;
4182;SDS011;2105;52.300;9.182;2023-01-15T11:55:39;17.90;;;16.20;;
4182;SDS011;2105;52.300;9.182;2023-01-15T11:58:15;17.80;;;16.37;;
4182;SDS011;2105;52.300;9.182;2023-01-15T12:00:41;17.50;;;15.80;;
4182;SDS011;2105;52.300;9.182;2023-01-15T12:03:12;16.90;;;15.40;;
4182;SDS011;2105;52.300;9.182;2023-01-15T12:05:45;16.90;;;15.40;;
4182;SDS011;2105;52.300;9.182;2023-01-15T12:08:19;17.30;;;15.70;;
4182;SDS011;2105;52.300;9.182;2023-01-15T12:10:59;16.40;;;14.80;;
4182;SDS011;2105;52.300;9.182;2023-01-15T12:13:40;16.63;;;14.90;;
4182;SDS011;2105;52.300;9.182;2023-01-15T12:16:13;17.13;;;15.63;;
4182;SDS011;2105;52.300;9.182;2023-01-15T12:18:52;17.40;;;15.70;;
4182;SDS011;2105;52.300;9.182;2023-01-15T12:21:38;16.77;;;15.00;;
4182;SDS011;2105;52.300;9.182;2023-01-15T12:27:06;16.30;;;14.63;;
4182;SDS011;2105;52.300;9.182;2023-01-15T12:29:42;15.53;;;14.20;;
4182;SDS011;2105;52.300;9.182;2023-01-15T12:32:12;16.77;;;14.70;;
4182;SDS011;2105;52.300;9.182;2023-01-15T12:34:43;16.27;;;15.00;;
4182;SDS011;2105;52.300;9.182;2023-01-15T12:37:18;17.00;;;15.50;;
4182;SDS011;2105;52.300;9.182;2023-01-15T12:39:49;16.33;;;15.03;;
4182;SDS011;2105;52.300;9.182;2023-01-15T12:42:22;16.47;;;15.00;;
4182;SDS011;2105;52.300;9.182;2023-01-15T12:45:09;16.53;;;14.90;;
4182;SDS011;2105;52.300;9.182;2023-01-15T12:47:41;17.33;;;15.33;;
4182;SDS011;2105;52.300;9.182;2023-01-15T12:50:21;17.10;;;15.40;;
4182;SDS011;2105;52.300;9.182;2023-01-15T12:52:56;16.00;;;14.73;;
4182;SDS011;2105;52.300;9.182;2023-01-15T12:55:28;16.33;;;14.87;;
4182;SDS011;2105;52.300;9.182;2023-01-15T12:57:58;15.93;;;14.27;;
4182;SDS011;2105;52.300;9.182;2023-01-15T13:00:28;16.67;;;14.57;;
4182;SDS011;2105;52.300;9.182;2023-01-15T13:03:04;15.77;;;14.17;;
4182;SDS011;2105;52.300;9.182;2023-01-15T13:05:46;15.03;;;13.93;;
4182;SDS011;2105;52.300;9.182;2023-01-15T13:08:19;15.60;;;14.10;;
4182;SDS011;2105;52.300;9.182;2023-01-15T13:10:51;16.77;;;14.97;;
4182;SDS011;2105;52.300;9.182;2023-01-15T13:13:19;15.80;;;14.33;;
4182;SDS011;2105;52.300;9.182;2023-01-15T13:15:51;15.87;;;14.60;;
4182;SDS011;2105;52.300;9.182;2023-01-15T13:18:25;15.07;;;13.77;;
4182;SDS011;2105;52.300;9.182;2023-01-15T13:21:01;15.30;;;14.10;;
4182;SDS011;2105;52.300;9.182;2023-01-15T13:23:39;15.60;;;14.37;;
4182;SDS011;2105;52.300;9.182;2023-01-15T13:26:26;15.83;;;14.17;;
4182;SDS011;2105;52.300;9.182;2023-01-15T13:29:12;18.13;;;15.00;;
4182;SDS011;2105;52.300;9.182;2023-01-15T13:31:46;15.20;;;13.90;;
4182;SDS011;2105;52.300;9.182;2023-01-15T13:34:21;15.30;;;13.80;;
4182;SDS011;2105;52.300;9.182;2023-01-15T13:36:53;16.37;;;14.57;;
4182;SDS011;2105;52.300;9.182;2023-01-15T13:39:27;15.40;;;14.10;;
4182;SDS011;2105;52.300;9.182;2023-01-15T13:42:00;16.07;;;14.57;;
4182;SDS011;2105;52.300;9.182;2023-01-15T13:44:48;20.40;;;14.60;;
4182;SDS011;2105;52.300;9.182;2023-01-15T13:47:18;15.80;;;14.40;;
4182;SDS011;2105;52.300;9.182;2023-01-15T13:49:48;18.50;;;14.87;;
4182;SDS011;2105;52.300;9.182;2023-01-15T13:52:20;15.60;;;14.27;;
4182;SDS011;2105;52.300;9.182;2023-01-15T13:54:50;17.33;;;14.40;;
4182;SDS011;2105;52.300;9.182;2023-01-15T13:57:20;16.60;;;14.90;;
4182;SDS011;2105;52.300;9.182;2023-01-15T13:59:50;15.90;;;14.57;;
4182;SDS011;2105;52.300;9.182;2023-01-15T14:02:22;15.80;;;14.60;;
4182;SDS011;2105;52.300;9.182;2023-01-15T14:04:50;15.80;;;14.40;;
4182;SDS011;2105;52.300;9.182;2023-01-15T14:07:18;15.50;;;14.10;;
4182;SDS011;2105;52.300;9.182;2023-01-15T14:09:47;16.00;;;14.47;;
4182;SDS011;2105;52.300;9.182;2023-01-15T14:12:19;15.10;;;13.90;;
4182;SDS011;2105;52.300;9.182;2023-01-15T14:15:05;16.17;;;14.57;;
4182;SDS011;2105;52.300;9.182;2023-01-15T14:17:51;15.87;;;14.43;;
4182;SDS011;2105;52.300;9.182;2023-01-15T14:20:35;17.73;;;14.97;;
4182;SDS011;2105;52.300;9.182;2023-01-15T14:23:20;16.17;;;14.87;;
4182;SDS011;2105;52.300;9.182;2023-01-15T14:26:01;15.90;;;14.30;;
4182;SDS011;2105;52.300;9.182;2023-01-15T14:28:41;15.67;;;14.27;;
4182;SDS011;2105;52.300;9.182;2023-01-15T14:31:22;16.67;;;15.10;;
4182;SDS011;2105;52.300;9.182;2023-01-15T14:34:17;17.60;;;14.63;;
4182;SDS011;2105;52.300;9.182;2023-01-15T14:36:50;16.87;;;15.43;;
4182;SDS011;2105;52.300;9.182;2023-01-15T14:39:23;16.70;;;15.07;;
4182;SDS011;2105;52.300;9.182;2023-01-15T14:41:56;15.80;;;14.53;;
4182;SDS011;2105;52.300;9.182;2023-01-15T14:44:46;16.23;;;14.70;;
4182;SDS011;2105;52.300;9.182;2023-01-15T14:47:23;15.87;;;14.70;;
4182;SDS011;2105;52.300;9.182;2023-01-15T14:50:01;16.60;;;14.90;;
4182;SDS011;2105;52.300;9.182;2023-01-15T14:52:46;16.00;;;14.60;;
4182;SDS011;2105;52.300;9.182;2023-01-15T14:55:15;16.10;;;14.60;;
4182;SDS011;2105;52.300;9.182;2023-01-15T14:57:43;15.97;;;14.40;;
4182;SDS011;2105;52.300;9.182;2023-01-15T15:00:17;15.67;;;14.20;;
4182;SDS011;2105;52.300;9.182;2023-01-15T15:02:45;15.50;;;14.07;;
4182;SDS011;2105;52.300;9.182;2023-01-15T15:05:15;15.73;;;14.33;;
4182;SDS011;2105;52.300;9.182;2023-01-15T15:07:45;15.50;;;14.33;;
4182;SDS011;2105;52.300;9.182;2023-01-15T15:10:18;15.77;;;14.40;;
4182;SDS011;2105;52.300;9.182;2023-01-15T15:13:05;15.50;;;14.30;;
4182;SDS011;2105;52.300;9.182;2023-01-15T15:15:41;16.10;;;14.50;;
4182;SDS011;2105;52.300;9.182;2023-01-15T15:18:18;15.40;;;14.00;;
4182;SDS011;2105;52.300;9.182;2023-01-15T15:20:58;15.27;;;13.97;;
4182;SDS011;2105;52.300;9.182;2023-01-15T15:23:30;14.50;;;13.40;;
4182;SDS011;2105;52.300;9.182;2023-01-15T15:26:03;16.07;;;13.57;;
4182;SDS011;2105;52.300;9.182;2023-01-15T15:28:41;14.47;;;13.37;;
4182;SDS011;2105;52.300;9.182;2023-01-15T15:31:09;14.93;;;13.50;;
4182;SDS011;2105;52.300;9.182;2023-01-15T15:33:37;14.43;;;13.33;;
4182;SDS011;2105;52.300;9.182;2023-01-15T15:36:11;14.80;;;13.40;;